createdAt,value
2018-05-11T00:00:48.720Z,73.91
2018-05-11T00:01:58.941Z,74.01
2018-05-11T00:03:09.097Z,73.82
2018-05-11T00:04:19.012Z,73.91
2018-05-11T00:05:28.911Z,73.63
2018-05-11T00:06:39.349Z,73.72
2018-05-11T00:07:49.268Z,73.82
2018-05-11T00:08:59.403Z,73.63
2018-05-11T00:10:09.576Z,73.34
2018-05-11T00:11:19.716Z,73.54
2018-05-11T00:12:29.851Z,73.72
2018-05-11T00:13:40.004Z,73.44
2018-05-11T00:14:50.351Z,73.63
2018-05-11T00:16:00.513Z,73.63
2018-05-11T00:17:10.765Z,73.44
2018-05-11T00:18:21.071Z,73.24
2018-05-11T00:19:31.239Z,73.63
2018-05-11T00:20:41.399Z,73.54
2018-05-11T00:21:51.336Z,73.63
2018-05-11T00:23:01.523Z,73.34
2018-05-11T00:24:11.476Z,73.63
2018-05-11T00:25:21.875Z,73.82
2018-05-11T00:26:32.065Z,73.72
2018-05-11T00:27:42.251Z,73.34
2018-05-11T00:28:52.401Z,73.63
2018-05-11T00:30:02.306Z,73.63
2018-05-11T00:31:12.510Z,73.63
2018-05-11T00:32:22.738Z,73.63
2018-05-11T00:33:32.998Z,73.34
2018-05-11T00:34:42.907Z,73.72
2018-05-11T00:35:52.774Z,73.82
2018-05-11T00:37:02.901Z,73.91
2018-05-11T00:38:13.028Z,74.01
2018-05-11T00:39:23.252Z,73.54
2018-05-11T00:40:33.395Z,73.44
2018-05-11T00:41:43.171Z,73.34
2018-05-11T00:42:53.363Z,73.34
2018-05-11T00:44:03.249Z,73.44
2018-05-11T00:45:13.395Z,73.34
2018-05-11T00:46:23.548Z,73.24
2018-05-11T00:47:33.687Z,73.15
2018-05-11T00:48:43.858Z,73.24
2018-05-11T00:49:54.066Z,73.34
2018-05-11T00:51:03.959Z,73.3
2018-05-11T00:52:14.418Z,73.05
2018-05-11T00:53:24.424Z,73.11
2018-05-11T00:54:34.585Z,73.63
2018-05-11T00:55:44.706Z,73.15
2018-05-11T00:56:54.829Z,73.3
2018-05-11T00:58:05.008Z,73.11
2018-05-11T00:59:15.183Z,72.92
2018-05-11T01:00:25.069Z,73.4
2018-05-11T01:01:35.277Z,73.21
2018-05-11T01:02:45.474Z,73.02
2018-05-11T01:03:56.660Z,73.15
2018-05-11T01:05:07.064Z,73.21
2018-05-11T01:06:17.224Z,73.11
2018-05-11T01:07:27.447Z,72.48
2018-05-11T01:08:37.651Z,72.38
2018-05-11T01:09:47.783Z,72.48
2018-05-11T01:10:57.431Z,72.44
2018-05-11T01:12:07.686Z,72.44
2018-05-11T01:13:17.962Z,72.63
2018-05-11T01:14:28.098Z,72.44
2018-05-11T01:15:38.222Z,72.48
2018-05-11T01:16:48.437Z,72.44
2018-05-11T01:17:58.461Z,72.38
2018-05-11T01:19:08.698Z,72.54
2018-05-11T01:20:18.926Z,73.21
2018-05-11T01:21:28.825Z,72.54
2018-05-11T01:22:38.959Z,72.34
2018-05-11T01:23:49.069Z,73.11
2018-05-11T01:24:59.202Z,72.92
2018-05-11T01:26:09.169Z,73.11
2018-05-11T01:27:19.394Z,73.21
2018-05-11T01:28:28.384Z,73.5
2018-05-11T01:29:38.748Z,73.02
2018-05-11T01:30:48.554Z,73.02
2018-05-11T01:31:58.699Z,73.02
2018-05-11T01:33:08.838Z,73.02
2018-05-11T01:34:18.968Z,73.02
2018-05-11T01:35:29.101Z,73.02
2018-05-11T01:36:39.226Z,73.02
2018-05-11T01:37:49.348Z,73.11
2018-05-11T01:38:59.614Z,73.11
2018-05-11T01:40:09.795Z,73.3
2018-05-11T01:41:19.916Z,73.4
2018-05-11T01:42:30.096Z,73.3
2018-05-11T01:43:40.317Z,73.3
2018-05-11T01:44:50.504Z,73.3
2018-05-11T01:46:00.442Z,73.3
2018-05-11T01:47:10.577Z,73.5
2018-05-11T01:48:20.761Z,73.5
2018-05-11T01:49:30.896Z,73.5
2018-05-11T01:50:40.676Z,73.59
2018-05-11T01:51:50.830Z,73.59
2018-05-11T01:53:00.985Z,73.5
2018-05-11T01:54:11.113Z,73.97
2018-05-11T01:55:21.299Z,73.97
2018-05-11T01:56:31.419Z,73.97
2018-05-11T01:57:41.600Z,73.4
2018-05-11T01:58:51.731Z,73.5
2018-05-11T02:00:01.957Z,73.59
2018-05-11T02:01:12.117Z,73.88
2018-05-11T02:02:22.463Z,73.88
2018-05-11T02:03:32.694Z,73.88
2018-05-11T02:04:42.851Z,73.79
2018-05-11T02:05:52.997Z,73.88
2018-05-11T02:07:03.122Z,73.79
2018-05-11T02:08:13.292Z,73.69
2018-05-11T02:09:23.449Z,73.88
2018-05-11T02:10:33.577Z,73.79
2018-05-11T02:11:43.732Z,73.79
2018-05-11T02:12:53.912Z,73.21
2018-05-11T02:14:03.806Z,73.59
2018-05-11T02:15:13.946Z,73.11
2018-05-11T02:16:24.167Z,73.69
2018-05-11T02:17:34.015Z,73.88
2018-05-11T02:18:44.337Z,73.69
2018-05-11T02:19:54.459Z,73.79
2018-05-11T02:21:04.599Z,73.97
2018-05-11T02:22:14.802Z,73.69
2018-05-11T02:23:24.945Z,73.97
2018-05-11T02:24:35.233Z,73.88
2018-05-11T02:25:45.428Z,73.79
2018-05-11T02:26:55.409Z,73.59
2018-05-11T02:28:05.554Z,73.88
2018-05-11T02:29:15.778Z,74.26
2018-05-11T02:30:25.929Z,74.07
2018-05-11T02:31:35.860Z,74.32
2018-05-11T02:32:45.629Z,74.16
2018-05-11T02:33:55.757Z,74.36
2018-05-11T02:35:05.742Z,73.97
2018-05-11T02:36:15.956Z,74.07
2018-05-11T02:37:26.176Z,74.16
2018-05-11T02:38:36.415Z,74.26
2018-05-11T02:39:46.677Z,73.69
2018-05-11T02:40:56.867Z,73.79
2018-05-11T02:42:06.788Z,73.97
2018-05-11T02:43:16.965Z,74.07
2018-05-11T02:44:27.207Z,74.07
2018-05-11T02:45:37.375Z,74.07
2018-05-11T02:46:47.578Z,74.26
2018-05-11T02:47:57.781Z,74.07
2018-05-11T02:49:07.985Z,73.88
2018-05-11T02:50:18.229Z,74.07
2018-05-11T02:51:28.106Z,73.88
2018-05-11T02:52:38.233Z,73.88
2018-05-11T02:53:48.429Z,73.88
2018-05-11T02:54:58.641Z,74.16
2018-05-11T02:56:08.867Z,73.69
2018-05-11T02:57:19.025Z,73.79
2018-05-11T02:58:29.160Z,73.79
2018-05-11T02:59:39.308Z,73.79
2018-05-11T03:00:49.452Z,73.88
2018-05-11T03:01:59.609Z,73.3
2018-05-11T03:03:09.751Z,73.69
2018-05-11T03:04:19.875Z,73.11
2018-05-11T03:05:30.060Z,73.4
2018-05-11T03:06:40.229Z,73.02
2018-05-11T03:07:50.501Z,73.11
2018-05-11T03:09:00.777Z,73.02
2018-05-11T03:10:10.933Z,73.5
2018-05-11T03:11:21.128Z,73.4
2018-05-11T03:12:30.953Z,73.4
2018-05-11T03:13:41.122Z,73.4
2018-05-11T03:14:51.003Z,73.4
2018-05-11T03:16:01.219Z,73.5
2018-05-11T03:17:11.142Z,73.59
2018-05-11T03:18:21.125Z,73.79
2018-05-11T03:19:31.708Z,73.79
2018-05-11T03:20:41.889Z,73.88
2018-05-11T03:21:52.030Z,73.79
2018-05-11T03:23:01.905Z,73.69
2018-05-11T03:24:11.910Z,73.59
2018-05-11T03:25:22.085Z,73.88
2018-05-11T03:26:32.205Z,73.4
2018-05-11T03:27:42.332Z,73.5
2018-05-11T03:28:52.643Z,73.69
2018-05-11T03:30:02.820Z,73.5
2018-05-11T03:31:13.092Z,73.5
2018-05-11T03:32:22.960Z,73.21
2018-05-11T03:33:32.586Z,73.69
2018-05-11T03:34:42.757Z,73.4
2018-05-11T03:35:52.938Z,73.3
2018-05-11T03:37:03.205Z,73.79
2018-05-11T03:38:13.397Z,73.79
2018-05-11T03:39:23.667Z,73.97
2018-05-11T03:40:33.477Z,73.21
2018-05-11T03:41:43.599Z,73.59
2018-05-11T03:42:53.491Z,73.5
2018-05-11T03:44:03.633Z,73.59
2018-05-11T03:45:13.536Z,73.59
2018-05-11T03:46:23.658Z,73.97
2018-05-11T03:47:33.792Z,74.07
2018-05-11T03:48:43.957Z,73.97
2018-05-11T03:49:54.190Z,73.97
2018-05-11T03:51:04.344Z,73.79
2018-05-11T03:52:14.558Z,73.88
2018-05-11T03:53:24.818Z,73.79
2018-05-11T03:54:34.984Z,73.88
2018-05-11T03:55:44.881Z,73.97
2018-05-11T03:56:54.711Z,73.97
2018-05-11T03:58:04.861Z,73.88
2018-05-11T03:59:15.007Z,73.88
2018-05-11T04:00:25.191Z,73.88
2018-05-11T04:01:35.311Z,73.79
2018-05-11T04:02:45.450Z,73.69
2018-05-11T04:03:55.609Z,73.88
2018-05-11T04:05:05.803Z,73.97
2018-05-11T04:06:15.990Z,73.97
2018-05-11T04:07:26.139Z,73.88
2018-05-11T04:08:36.284Z,73.97
2018-05-11T04:09:46.338Z,73.88
2018-05-11T04:10:56.652Z,73.59
2018-05-11T04:12:06.963Z,73.4
2018-05-11T04:13:17.350Z,73.59
2018-05-11T04:14:27.499Z,73.11
2018-05-11T04:15:37.688Z,73.88
2018-05-11T04:16:47.578Z,73.3
2018-05-11T04:17:57.348Z,73.21
2018-05-11T04:19:07.491Z,73.59
2018-05-11T04:20:17.615Z,73.3
2018-05-11T04:21:27.776Z,73.79
2018-05-11T04:22:37.910Z,73.69
2018-05-11T04:23:48.162Z,73.5
2018-05-11T04:24:58.383Z,73.5
2018-05-11T04:26:08.575Z,73.4
2018-05-11T04:27:18.769Z,73.5
2018-05-11T04:28:28.655Z,73.3
2018-05-11T04:29:38.824Z,73.4
2018-05-11T04:30:48.975Z,73.59
2018-05-11T04:31:59.142Z,73.4
2018-05-11T04:33:09.332Z,73.4
2018-05-11T04:34:19.449Z,73.3
2018-05-11T04:35:29.587Z,73.3
2018-05-11T04:36:39.731Z,73.11
2018-05-11T04:37:49.892Z,73.3
2018-05-11T04:39:00.061Z,73.11
2018-05-11T04:40:10.274Z,73.3
2018-05-11T04:41:20.488Z,73.3
2018-05-11T04:42:30.373Z,73.3
2018-05-11T04:43:40.248Z,73.69
2018-05-11T04:44:50.373Z,73.3
2018-05-11T04:46:00.492Z,73.3
2018-05-11T04:47:10.655Z,73.3
2018-05-11T04:48:20.886Z,73.3
2018-05-11T04:49:30.781Z,72.92
2018-05-11T04:50:40.916Z,73.21
2018-05-11T04:51:50.784Z,73.3
2018-05-11T04:53:00.940Z,73.3
2018-05-11T04:54:11.086Z,73.3
2018-05-11T04:55:21.338Z,73.02
2018-05-11T04:56:31.469Z,73.5
2018-05-11T04:57:41.681Z,73.4
2018-05-11T04:58:51.953Z,73.59
2018-05-11T05:00:02.094Z,73.3
2018-05-11T05:01:12.305Z,73.4
2018-05-11T05:02:22.547Z,73.3
2018-05-11T05:03:32.715Z,73.59
2018-05-11T05:04:42.954Z,73.3
2018-05-11T05:05:53.123Z,73.59
2018-05-11T05:07:03.278Z,73.79
2018-05-11T05:08:13.446Z,73.59
2018-05-11T05:09:23.594Z,73.5
2018-05-11T05:10:33.729Z,73.5
2018-05-11T05:11:43.910Z,73.59
2018-05-11T05:12:54.087Z,73.4
2018-05-11T05:14:04.320Z,73.4
2018-05-11T05:15:14.200Z,73.97
2018-05-11T05:16:24.083Z,73.88
2018-05-11T05:17:35.200Z,73.69
2018-05-11T05:18:45.343Z,74.16
2018-05-11T05:19:55.232Z,73.97
2018-05-11T05:21:05.381Z,74.26
2018-05-11T05:22:15.511Z,74.16
2018-05-11T05:23:25.686Z,74.16
2018-05-11T05:24:35.908Z,74.45
2018-05-11T05:25:46.088Z,74.36
2018-05-11T05:26:56.225Z,74.26
2018-05-11T05:28:06.467Z,74.36
2018-05-11T05:29:16.637Z,74.36
2018-05-11T05:30:26.840Z,74.36
2018-05-11T05:31:37.155Z,74.26
2018-05-11T05:32:47.045Z,73.97
2018-05-11T05:33:56.942Z,74.26
2018-05-11T05:35:07.113Z,74.07
2018-05-11T05:36:17.242Z,73.97
2018-05-11T05:37:27.373Z,73.97
2018-05-11T05:38:37.528Z,73.88
2018-05-11T05:39:47.837Z,73.79
2018-05-11T05:40:58.030Z,73.88
2018-05-11T05:42:08.193Z,73.97
2018-05-11T05:43:18.411Z,74.07
2018-05-11T05:44:28.572Z,73.79
2018-05-11T05:45:38.737Z,73.69
2018-05-11T05:46:48.981Z,73.59
2018-05-11T05:47:58.896Z,73.44
2018-05-11T05:49:09.044Z,73.44
2018-05-11T05:50:19.247Z,72.96
2018-05-11T05:51:29.439Z,73.05
2018-05-11T05:52:39.219Z,73.34
2018-05-11T05:53:49.446Z,73.15
2018-05-11T05:54:59.694Z,73.24
2018-05-11T05:56:09.957Z,73.15
2018-05-11T05:57:20.129Z,72.86
2018-05-11T05:58:30.484Z,73.05
2018-05-11T05:59:40.501Z,73.15
2018-05-11T06:00:50.731Z,73.24
2018-05-11T06:02:00.534Z,73.05
2018-05-11T06:03:10.661Z,73.34
2018-05-11T06:04:20.955Z,73.05
2018-05-11T06:05:31.107Z,72.67
2018-05-11T06:06:41.284Z,72.96
2018-05-11T06:07:51.515Z,72.86
2018-05-11T06:09:01.658Z,72.86
2018-05-11T06:10:11.826Z,72.58
2018-05-11T06:11:21.983Z,72.58
2018-05-11T06:12:31.852Z,72.77
2018-05-11T06:13:41.999Z,72.38
2018-05-11T06:14:52.142Z,72.42
2018-05-11T06:16:02.269Z,72.38
2018-05-11T06:17:12.457Z,72.42
2018-05-11T06:18:23.616Z,72.61
2018-05-11T06:19:33.767Z,72.52
2018-05-11T06:20:43.916Z,72.38
2018-05-11T06:21:54.113Z,72.23
2018-05-11T06:23:04.604Z,72.13
2018-05-11T06:24:14.737Z,71.91
2018-05-11T06:25:24.973Z,72.09
2018-05-11T06:26:35.116Z,72.23
2018-05-11T06:27:45.264Z,72.32
2018-05-11T06:28:55.467Z,71.75
2018-05-11T06:30:05.918Z,71.66
2018-05-11T06:31:15.817Z,71.66
2018-05-11T06:32:25.964Z,71.75
2018-05-11T06:33:36.104Z,71.94
2018-05-11T06:34:46.307Z,71.75
2018-05-11T06:35:56.523Z,71.75
2018-05-11T06:37:06.832Z,71.84
2018-05-11T06:38:17.013Z,71.94
2018-05-11T06:39:27.227Z,71.94
2018-05-11T06:40:37.519Z,71.66
2018-05-11T06:41:47.791Z,71.66
2018-05-11T06:42:57.962Z,71.46
2018-05-11T06:44:08.206Z,71.17
2018-05-11T06:45:18.160Z,70.98
2018-05-11T06:46:28.401Z,71.08
2018-05-11T06:47:38.634Z,70.89
2018-05-11T06:48:48.573Z,70.89
2018-05-11T06:49:58.735Z,70.98
2018-05-11T06:51:08.608Z,70.89
2018-05-11T06:52:18.747Z,70.44
2018-05-11T06:53:28.935Z,69.96
2018-05-11T06:54:39.103Z,69.87
2018-05-11T06:55:49.111Z,69.58
2018-05-11T06:56:59.577Z,69.48
2018-05-11T06:58:09.754Z,69.77
2018-05-11T06:59:19.987Z,69.48
2018-05-11T07:00:30.169Z,69.68
2018-05-11T07:01:39.937Z,69.58
2018-05-11T07:02:50.089Z,69.29
2018-05-11T07:04:00.299Z,69.68
2018-05-11T07:05:10.548Z,69.48
2018-05-11T07:06:20.753Z,69.1
2018-05-11T07:07:30.938Z,69.1
2018-05-11T07:08:41.277Z,68.91
2018-05-11T07:09:50.900Z,68.33
2018-05-11T07:11:00.880Z,67.85
2018-05-11T07:12:11.017Z,67.85
2018-05-11T07:13:21.159Z,67.66
2018-05-11T07:14:31.358Z,67.85
2018-05-11T07:15:41.544Z,68.05
2018-05-11T07:16:51.711Z,68.05
2018-05-11T07:18:01.834Z,68.43
2018-05-11T07:19:11.993Z,68.62
2018-05-11T07:20:22.233Z,68.14
2018-05-11T07:21:32.573Z,67.6
2018-05-11T07:22:42.765Z,67.6
2018-05-11T07:23:52.998Z,68.08
2018-05-11T07:25:02.841Z,68.08
2018-05-11T07:26:12.983Z,67.99
2018-05-11T07:27:22.892Z,67.69
2018-05-11T07:28:33.034Z,67.6
2018-05-11T07:29:42.982Z,67.41
2018-05-11T07:30:53.144Z,67.32
2018-05-11T07:32:03.323Z,66.93
2018-05-11T07:33:12.864Z,67.02
2018-05-11T07:34:23.158Z,67.02
2018-05-11T07:35:33.365Z,66.45
2018-05-11T07:36:43.316Z,66.35
2018-05-11T07:37:53.453Z,66.55
2018-05-11T07:39:03.609Z,66.45
2018-05-11T07:40:13.921Z,66.49
2018-05-11T07:41:24.131Z,66.58
2018-05-11T07:42:34.329Z,66.06
2018-05-11T07:43:43.933Z,65.78
2018-05-11T07:44:54.199Z,66.1
2018-05-11T07:46:04.370Z,66.06
2018-05-11T07:47:14.618Z,65.97
2018-05-11T07:48:24.308Z,65.88
2018-05-11T07:49:34.526Z,66.26
2018-05-11T07:50:44.847Z,65.97
2018-05-11T07:51:55.119Z,66.06
2018-05-11T07:53:05.295Z,66.35
2018-05-11T07:54:15.290Z,66.1
2018-05-11T07:55:25.563Z,66.19
2018-05-11T07:56:35.537Z,65.91
2018-05-11T07:57:45.684Z,65.43
2018-05-11T07:58:55.868Z,65.23
2018-05-11T08:00:05.804Z,65.23
2018-05-11T08:01:15.947Z,65.33
2018-05-11T08:02:26.117Z,65.43
2018-05-11T08:03:36.318Z,65.23
2018-05-11T08:04:46.480Z,65.43
2018-05-11T08:05:56.729Z,65.14
2018-05-11T08:07:06.997Z,65.05
2018-05-11T08:08:16.799Z,64.85
2018-05-11T08:09:26.769Z,64.18
2018-05-11T08:10:37.035Z,63.99
2018-05-11T08:11:46.998Z,64.79
2018-05-11T08:12:57.159Z,64.31
2018-05-11T08:14:07.387Z,64.02
2018-05-11T08:15:18.101Z,64.02
2018-05-11T08:16:28.026Z,63.57
2018-05-11T08:17:38.220Z,62.99
2018-05-11T08:18:48.367Z,61.84
2018-05-11T08:19:58.572Z,61.68
2018-05-11T08:21:08.255Z,61.11
2018-05-11T08:22:18.299Z,60.75
2018-05-11T08:23:28.578Z,60.56
2018-05-11T08:24:38.552Z,59.99
2018-05-11T08:25:48.707Z,59.41
2018-05-11T08:26:58.551Z,59.44
2018-05-11T08:28:08.596Z,58.28
2018-05-11T08:29:18.443Z,58.79
2018-05-11T08:30:28.628Z,58.6
2018-05-11T08:31:38.537Z,58.34
2018-05-11T08:32:49.767Z,57.21
2018-05-11T08:33:59.733Z,57.31
2018-05-11T08:35:09.666Z,56.09
2018-05-11T08:36:19.982Z,54.86
2018-05-11T08:37:30.158Z,52.79
2018-05-11T08:38:39.991Z,51.75
2018-05-11T08:39:49.998Z,49.68
2018-05-11T08:40:59.942Z,49.22
2018-05-11T08:42:10.091Z,48.79
2018-05-11T08:43:20.316Z,48.03
2018-05-11T08:44:30.644Z,47.47
2018-05-11T08:45:40.812Z,46.92
2018-05-11T08:46:50.699Z,44.23
2018-05-11T08:48:00.583Z,43.95
2018-05-11T08:49:10.731Z,43.1
2018-05-11T08:50:20.888Z,43.02
2018-05-11T08:51:31.046Z,39.84
2018-05-11T08:52:41.268Z,40.62
2018-05-11T08:53:51.139Z,40.52
2018-05-11T08:55:01.320Z,40.33
2018-05-11T08:56:11.524Z,40.03
2018-05-11T08:57:21.806Z,38.79
2018-05-11T08:58:31.987Z,38.7
2018-05-11T08:59:42.308Z,38.96
2018-05-11T09:00:52.492Z,39.84
2018-05-11T09:02:02.690Z,38.96
2018-05-11T09:03:12.957Z,38.98
2018-05-11T09:04:23.149Z,38.7
2018-05-11T09:05:33.369Z,38.42
2018-05-11T09:06:43.590Z,37.74
2018-05-11T09:07:53.797Z,37.08
2018-05-11T09:09:03.953Z,36.32
2018-05-11T09:10:14.752Z,36.12
2018-05-11T09:11:25.231Z,35.83
2018-05-11T09:12:35.395Z,35.61
2018-05-11T09:13:45.743Z,36.07
2018-05-11T09:14:55.974Z,36.93
2018-05-11T09:16:06.169Z,37.1
2018-05-11T09:17:16.448Z,36.81
2018-05-11T09:18:26.731Z,37.2
2018-05-11T09:19:36.674Z,36.91
2018-05-11T09:20:47.091Z,36.89
2018-05-11T09:21:57.399Z,37.37
2018-05-11T09:23:07.974Z,37.47
2018-05-11T09:24:17.888Z,37.1
2018-05-11T09:25:28.123Z,36.83
2018-05-11T09:26:38.380Z,36.36
2018-05-11T09:27:48.574Z,36.16
2018-05-11T09:28:58.679Z,35.89
2018-05-11T09:30:08.653Z,36.18
2018-05-11T09:31:18.568Z,36.18
2018-05-11T09:32:28.773Z,35.42
2018-05-11T09:33:39.077Z,34.55
2018-05-11T09:34:49.308Z,34.17
2018-05-11T09:36:00.901Z,33.69
2018-05-11T09:37:11.112Z,34.55
2018-05-11T09:38:21.399Z,33.18
2018-05-11T09:39:31.815Z,34.53
2018-05-11T09:40:42.733Z,34.53
2018-05-11T09:41:53.006Z,34.55
2018-05-11T09:43:03.279Z,34.45
2018-05-11T09:44:13.183Z,33.48
2018-05-11T09:45:23.370Z,33.58
2018-05-11T09:46:34.658Z,32.32
2018-05-11T09:47:44.818Z,33.29
2018-05-11T09:48:55.736Z,32.71
2018-05-11T09:50:06.046Z,32.81
2018-05-11T09:51:16.240Z,33.09
2018-05-11T09:52:26.333Z,33.36
2018-05-11T09:53:36.528Z,33.81
2018-05-11T09:54:46.828Z,34.38
2018-05-11T09:55:57.151Z,34.75
2018-05-11T09:57:07.047Z,34.66
2018-05-11T09:58:17.217Z,34.75
2018-05-11T09:59:27.441Z,34.67
2018-05-11T10:00:37.628Z,34.77
2018-05-11T10:01:47.945Z,34.4
2018-05-11T10:02:58.442Z,33.65
2018-05-11T10:04:08.618Z,33.07
2018-05-11T10:05:18.877Z,33.36
2018-05-11T10:06:29.085Z,32.49
2018-05-11T10:07:39.268Z,31.24
2018-05-11T10:08:49.580Z,31.71
2018-05-11T10:09:59.796Z,32.28
2018-05-11T10:11:09.984Z,33.44
2018-05-11T10:12:20.292Z,33.72
2018-05-11T10:13:30.487Z,34.11
2018-05-11T10:14:40.673Z,34.28
2018-05-11T10:15:50.827Z,34.3
2018-05-11T10:17:00.771Z,32.94
2018-05-11T10:18:11.109Z,32.84
2018-05-11T10:19:21.296Z,33.14
2018-05-11T10:20:31.444Z,33.04
2018-05-11T10:21:41.607Z,32.94
2018-05-11T10:22:51.781Z,33.81
2018-05-11T10:24:02.086Z,33.33
2018-05-11T10:25:12.672Z,33.25
2018-05-11T10:26:22.841Z,33.06
2018-05-11T10:27:33.141Z,32.97
2018-05-11T10:28:43.511Z,32.6
2018-05-11T10:29:54.075Z,32.11
2018-05-11T10:31:04.992Z,32.7
2018-05-11T10:32:15.161Z,32.21
2018-05-11T10:33:25.381Z,32.32
2018-05-11T10:34:35.676Z,31.25
2018-05-11T10:35:45.838Z,30.68
2018-05-11T10:36:56.067Z,30.18
2018-05-11T10:38:06.275Z,30.77
2018-05-11T10:39:16.466Z,30.85
2018-05-11T10:40:26.657Z,31.41
2018-05-11T10:41:36.824Z,32.39
2018-05-11T10:42:47.025Z,32.2
2018-05-11T10:43:57.328Z,32.76
2018-05-11T10:45:07.499Z,32.84
2018-05-11T10:46:17.716Z,33.53
2018-05-11T10:47:27.896Z,33.23
2018-05-11T10:48:38.429Z,33.7
2018-05-11T10:49:49.177Z,34.56
2018-05-11T10:50:59.444Z,34.46
2018-05-11T10:52:09.531Z,34.74
2018-05-11T10:53:19.885Z,34.93
2018-05-11T10:54:29.540Z,35.14
2018-05-11T10:55:39.808Z,35.61
2018-05-11T10:56:50.131Z,35.22
2018-05-11T10:58:00.329Z,35.71
2018-05-11T10:59:10.606Z,35.11
2018-05-11T11:00:20.871Z,35.41
2018-05-11T11:01:31.044Z,35.22
2018-05-11T11:02:41.249Z,35.24
2018-05-11T11:03:51.522Z,35.33
2018-05-11T11:05:01.725Z,35.05
2018-05-11T11:06:11.944Z,34.58
2018-05-11T11:07:22.132Z,33.72
2018-05-11T11:08:32.154Z,33.34
2018-05-11T11:09:42.340Z,32.97
2018-05-11T11:10:52.512Z,32.29
2018-05-11T11:12:02.700Z,31.71
2018-05-11T11:13:12.884Z,33.15
2018-05-11T11:14:23.169Z,33.23
2018-05-11T11:15:33.337Z,33.53
2018-05-11T11:16:43.544Z,34.48
2018-05-11T11:17:53.808Z,34.75
2018-05-11T11:19:04.032Z,35.33
2018-05-11T11:20:14.219Z,35.61
2018-05-11T11:21:24.382Z,35.69
2018-05-11T11:22:34.563Z,36.44
2018-05-11T11:23:44.831Z,36.82
2018-05-11T11:24:55.004Z,36.8
2018-05-11T11:26:05.500Z,37.28
2018-05-11T11:27:15.790Z,37.38
2018-05-11T11:28:26.004Z,37.48
2018-05-11T11:29:36.425Z,38.06
2018-05-11T11:30:46.625Z,37.87
2018-05-11T11:31:56.853Z,38.06
2018-05-11T11:33:07.071Z,38.04
2018-05-11T11:34:16.910Z,38.53
2018-05-11T11:35:27.376Z,39.67
2018-05-11T11:36:37.654Z,39.57
2018-05-11T11:37:47.826Z,39.94
2018-05-11T11:38:58.229Z,40.59
2018-05-11T11:40:08.451Z,40.5
2018-05-11T11:41:18.657Z,40.88
2018-05-11T11:42:28.829Z,40.88
2018-05-11T11:43:39.084Z,41.25
2018-05-11T11:44:49.273Z,41.25
2018-05-11T11:45:59.539Z,40.86
2018-05-11T11:47:09.701Z,40.96
2018-05-11T11:48:19.885Z,40.96
2018-05-11T11:49:30.069Z,40.86
2018-05-11T11:50:40.319Z,41.05
2018-05-11T11:51:50.519Z,41.15
2018-05-11T11:53:01.420Z,41.05
2018-05-11T11:54:11.587Z,41.63
2018-05-11T11:55:21.478Z,41.54
2018-05-11T11:56:31.513Z,41.73
2018-05-11T11:57:41.703Z,41.17
2018-05-11T11:58:51.909Z,40.88
2018-05-11T12:00:02.296Z,39.95
2018-05-11T12:01:13.456Z,38.81
2018-05-11T12:02:23.595Z,38.54
2018-05-11T12:03:33.515Z,38.45
2018-05-11T12:04:43.486Z,37.77
2018-05-11T12:05:53.834Z,37.28
2018-05-11T12:07:04.006Z,37.77
2018-05-11T12:08:13.916Z,38.15
2018-05-11T12:09:23.817Z,37.28
2018-05-11T12:10:34.125Z,37.21
2018-05-11T12:11:44.071Z,36.72
2018-05-11T12:12:54.283Z,36.82
2018-05-11T12:14:04.468Z,36.82
2018-05-11T12:15:14.643Z,36.82
2018-05-11T12:16:24.862Z,36.62
2018-05-11T12:17:35.048Z,36.83
2018-05-11T12:18:44.885Z,36.74
2018-05-11T12:19:55.106Z,36.54
2018-05-11T12:21:05.286Z,36.54
2018-05-11T12:22:15.104Z,36.36
2018-05-11T12:23:24.954Z,36.08
2018-05-11T12:24:35.119Z,36.18
2018-05-11T12:25:45.236Z,36.56
2018-05-11T12:26:55.468Z,36.46
2018-05-11T12:28:05.717Z,36.36
2018-05-11T12:29:15.880Z,36.46
2018-05-11T12:30:26.045Z,36.46
2018-05-11T12:31:36.218Z,36.36
2018-05-11T12:32:46.139Z,36.54
2018-05-11T12:33:56.308Z,36.44
2018-05-11T12:35:06.522Z,36.43
2018-05-11T12:36:16.710Z,37.21
2018-05-11T12:37:26.893Z,38.45
2018-05-11T12:38:37.033Z,38.06
2018-05-11T12:39:47.196Z,38.33
2018-05-11T12:40:57.506Z,38.23
2018-05-11T12:42:07.898Z,38.79
2018-05-11T12:43:17.872Z,39.37
2018-05-11T12:44:28.125Z,38.89
2018-05-11T12:45:38.390Z,38.41
2018-05-11T12:46:48.544Z,38.78
2018-05-11T12:47:58.727Z,39.16
2018-05-11T12:49:08.875Z,39.45
2018-05-11T12:50:20.069Z,39.64
2018-05-11T12:51:30.482Z,40.03
2018-05-11T12:52:40.419Z,40.4
2018-05-11T12:53:50.781Z,40.42
2018-05-11T12:55:00.932Z,40.5
2018-05-11T12:56:11.144Z,41.08
2018-05-11T12:57:21.333Z,40.86
2018-05-11T12:58:31.474Z,41.73
2018-05-11T12:59:41.655Z,41.93
2018-05-11T13:00:51.811Z,41.63
2018-05-11T13:02:01.713Z,41.93
2018-05-11T13:03:11.871Z,42.12
2018-05-11T13:04:22.033Z,41.93
2018-05-11T13:05:32.189Z,42.12
2018-05-11T13:06:42.118Z,41.83
2018-05-11T13:07:52.398Z,42
2018-05-11T13:09:02.553Z,42.29
2018-05-11T13:10:12.930Z,42
2018-05-11T13:11:23.082Z,41.91
2018-05-11T13:12:33.454Z,42.1
2018-05-11T13:13:43.640Z,41.91
2018-05-11T13:14:53.842Z,42
2018-05-11T13:16:04.124Z,42.19
2018-05-11T13:17:14.021Z,42.1
2018-05-11T13:18:25.173Z,42.19
2018-05-11T13:19:35.360Z,42.29
2018-05-11T13:20:45.648Z,42.21
2018-05-11T13:21:56.184Z,42.29
2018-05-11T13:23:06.472Z,42.68
2018-05-11T13:24:16.644Z,42.48
2018-05-11T13:25:26.842Z,42.58
2018-05-11T13:26:37.002Z,42.48
2018-05-11T13:27:47.214Z,42.41
2018-05-11T13:28:57.578Z,42.48
2018-05-11T13:30:07.808Z,42.48
2018-05-11T13:31:18.074Z,42.39
2018-05-11T13:32:28.239Z,42.68
2018-05-11T13:33:38.488Z,42.19
2018-05-11T13:34:48.370Z,42.29
2018-05-11T13:35:58.541Z,42.1
2018-05-11T13:37:08.751Z,42.97
2018-05-11T13:38:18.645Z,42.66
2018-05-11T13:39:28.813Z,42.87
2018-05-11T13:40:39.020Z,42.29
2018-05-11T13:41:49.187Z,42.75
2018-05-11T13:42:59.454Z,42.75
2018-05-11T13:44:09.642Z,42.85
2018-05-11T13:45:19.642Z,43.14
2018-05-11T13:46:29.928Z,43.04
2018-05-11T13:47:41.092Z,42.94
2018-05-11T13:48:51.014Z,43.04
2018-05-11T13:50:01.157Z,42.58
2018-05-11T13:51:11.357Z,42.29
2018-05-11T13:52:21.549Z,42.48
2018-05-11T13:53:31.775Z,42.87
2018-05-11T13:54:41.975Z,42.39
2018-05-11T13:55:52.167Z,42.48
2018-05-11T13:57:02.356Z,42.97
2018-05-11T13:58:12.654Z,42.39
2018-05-11T13:59:22.858Z,42.39
2018-05-11T14:00:33.053Z,42.48
2018-05-11T14:01:43.404Z,42.39
2018-05-11T14:02:53.573Z,42.29
2018-05-11T14:04:03.767Z,42.39
2018-05-11T14:05:13.980Z,42.58
2018-05-11T14:06:24.127Z,42.19
2018-05-11T14:07:34.343Z,42.19
2018-05-11T14:08:44.545Z,42.58
2018-05-11T14:09:54.867Z,42.39
2018-05-11T14:11:04.785Z,42.41
2018-05-11T14:12:15.012Z,42.5
2018-05-11T14:13:24.924Z,42.41
2018-05-11T14:14:34.852Z,42.21
2018-05-11T14:15:45.051Z,42.5
2018-05-11T14:16:55.259Z,42.5
2018-05-11T14:18:05.522Z,41.93
2018-05-11T14:19:15.393Z,42.12
2018-05-11T14:20:25.575Z,42.21
2018-05-11T14:21:35.763Z,42.02
2018-05-11T14:22:45.739Z,41.93
2018-05-11T14:23:56.039Z,41.93
2018-05-11T14:25:06.281Z,42.21
2018-05-11T14:26:16.468Z,41.83
2018-05-11T14:27:26.725Z,41.93
2018-05-11T14:28:36.522Z,41.83
2018-05-11T14:29:46.663Z,42.12
2018-05-11T14:30:56.490Z,42.41
2018-05-11T14:32:06.734Z,42.41
2018-05-11T14:33:16.969Z,42.6
2018-05-11T14:34:27.910Z,41.93
2018-05-11T14:35:38.197Z,42.04
2018-05-11T14:36:48.432Z,41.93
2018-05-11T14:37:58.621Z,42.02
2018-05-11T14:39:08.915Z,42.21
2018-05-11T14:40:19.208Z,42.6
2018-05-11T14:41:29.363Z,42.6
2018-05-11T14:42:39.602Z,42.6
2018-05-11T14:43:49.846Z,42.6
2018-05-11T14:45:00.056Z,43.18
2018-05-11T14:46:10.277Z,42.99
2018-05-11T14:47:20.489Z,43.08
2018-05-11T14:48:30.422Z,42.79
2018-05-11T14:49:40.688Z,43.28
2018-05-11T14:50:51.360Z,43.06
2018-05-11T14:52:01.545Z,43.26
2018-05-11T14:53:11.771Z,43.64
2018-05-11T14:54:21.604Z,43.93
2018-05-11T14:55:31.819Z,43.64
2018-05-11T14:56:41.973Z,44.03
2018-05-11T14:57:52.142Z,43.93
2018-05-11T14:59:02.343Z,44.51
2018-05-11T15:00:12.262Z,43.84
2018-05-11T15:01:22.524Z,44.51
2018-05-11T15:02:32.939Z,44.03
2018-05-11T15:03:43.100Z,44.12
2018-05-11T15:04:53.432Z,44.29
2018-05-11T15:06:03.348Z,44.78
2018-05-11T15:07:13.251Z,44.78
2018-05-11T15:08:23.453Z,44.87